sensor_id;sensor_type;location;lat;lon;timestamp;temperature;humidity
50606;DHT22;36557;53.572;10.170;2022-09-09T00:00:19;14.40;99.90
50606;DHT22;36557;53.572;10.170;2022-09-09T00:06:03;14.30;99.90
50606;DHT22;36557;53.572;10.170;2022-09-09T00:11:12;14.30;99.90
50606;DHT22;36557;53.572;10.170;2022-09-09T00:13:48;14.40;99.90
50606;DHT22;36557;53.572;10.170;2022-09-09T00:16:22;14.40;99.90
50606;DHT22;36557;53.572;10.170;2022-09-09T00:19:26;14.30;99.90
50606;DHT22;36557;53.572;10.170;2022-09-09T00:24:44;14.30;99.90
50606;DHT22;36557;53.572;10.170;2022-09-09T00:27:29;14.30;99.90
50606;DHT22;36557;53.572;10.170;2022-09-09T00:29:57;14.20;99.90
50606;DHT22;36557;53.572;10.170;2022-09-09T00:32:28;14.30;99.90
50606;DHT22;36557;53.572;10.170;2022-09-09T00:35:00;14.30;99.90
50606;DHT22;36557;53.572;10.170;2022-09-09T00:37:27;14.30;99.90
50606;DHT22;36557;53.572;10.170;2022-09-09T00:39:58;14.30;99.90
50606;DHT22;36557;53.572;10.170;2022-09-09T00:42:30;14.30;99.90
50606;DHT22;36557;53.572;10.170;2022-09-09T00:45:44;14.40;99.90
50606;DHT22;36557;53.572;10.170;2022-09-09T00:48:10;14.30;99.90
50606;DHT22;36557;53.572;10.170;2022-09-09T00:56:30;14.20;99.90
50606;DHT22;36557;53.572;10.170;2022-09-09T01:01:46;14.20;99.90
50606;DHT22;36557;53.572;10.170;2022-09-09T01:04:20;14.20;99.90
50606;DHT22;36557;53.572;10.170;2022-09-09T01:06:56;14.20;99.90
50606;DHT22;36557;53.572;10.170;2022-09-09T01:12:16;14.20;99.90
50606;DHT22;36557;53.572;10.170;2022-09-09T01:14:47;14.20;99.90
50606;DHT22;36557;53.572;10.170;2022-09-09T01:17:26;14.30;99.90
50606;DHT22;36557;53.572;10.170;2022-09-09T01:20:17;14.30;99.90
50606;DHT22;36557;53.572;10.170;2022-09-09T01:23:25;14.30;99.90
50606;DHT22;36557;53.572;10.170;2022-09-09T01:26:30;14.30;99.90
50606;DHT22;36557;53.572;10.170;2022-09-09T01:28:57;14.20;99.90
50606;DHT22;36557;53.572;10.170;2022-09-09T01:31:38;14.20;99.90
50606;DHT22;36557;53.572;10.170;2022-09-09T01:34:15;14.10;99.90
50606;DHT22;36557;53.572;10.170;2022-09-09T01:39:16;14.10;99.90
50606;DHT22;36557;53.572;10.170;2022-09-09T01:41:42;14.20;99.90
50606;DHT22;36557;53.572;10.170;2022-09-09T01:44:08;14.20;99.90
50606;DHT22;36557;53.572;10.170;2022-09-09T01:46:35;14.10;99.90
50606;DHT22;36557;53.572;10.170;2022-09-09T01:49:03;14.20;99.90
50606;DHT22;36557;53.572;10.170;2022-09-09T01:51:30;14.20;99.90
50606;DHT22;36557;53.572;10.170;2022-09-09T01:53:56;14.20;99.90
50606;DHT22;36557;53.572;10.170;2022-09-09T01:59:23;14.20;99.90
50606;DHT22;36557;53.572;10.170;2022-09-09T02:07:42;14.10;99.90
50606;DHT22;36557;53.572;10.170;2022-09-09T02:12:47;14.20;99.90
50606;DHT22;36557;53.572;10.170;2022-09-09T02:15:29;14.10;99.90
50606;DHT22;36557;53.572;10.170;2022-09-09T02:17:57;14.10;99.90
50606;DHT22;36557;53.572;10.170;2022-09-09T02:20:24;14.00;99.90
50606;DHT22;36557;53.572;10.170;2022-09-09T02:22:53;14.00;99.90
50606;DHT22;36557;53.572;10.170;2022-09-09T02:25:22;14.00;99.90
50606;DHT22;36557;53.572;10.170;2022-09-09T02:27:50;14.10;99.90
50606;DHT22;36557;53.572;10.170;2022-09-09T02:30:17;14.00;99.90
50606;DHT22;36557;53.572;10.170;2022-09-09T02:32:44;14.10;99.90
50606;DHT22;36557;53.572;10.170;2022-09-09T02:35:17;14.10;99.90
50606;DHT22;36557;53.572;10.170;2022-09-09T02:37:46;14.10;99.90
50606;DHT22;36557;53.572;10.170;2022-09-09T02:40:13;14.00;99.90
50606;DHT22;36557;53.572;10.170;2022-09-09T02:42:47;14.00;99.90
50606;DHT22;36557;53.572;10.170;2022-09-09T02:45:18;14.00;99.90
50606;DHT22;36557;53.572;10.170;2022-09-09T02:47:50;14.10;99.90
50606;DHT22;36557;53.572;10.170;2022-09-09T02:50:26;14.00;99.90
50606;DHT22;36557;53.572;10.170;2022-09-09T02:55:47;14.00;99.90
50606;DHT22;36557;53.572;10.170;2022-09-09T02:58:16;14.00;99.90
50606;DHT22;36557;53.572;10.170;2022-09-09T03:00:49;14.10;99.90
50606;DHT22;36557;53.572;10.170;2022-09-09T03:03:16;14.00;99.90
50606;DHT22;36557;53.572;10.170;2022-09-09T03:05:43;13.90;99.90
50606;DHT22;36557;53.572;10.170;2022-09-09T03:08:09;14.00;99.90
50606;DHT22;36557;53.572;10.170;2022-09-09T03:10:35;14.00;99.90
50606;DHT22;36557;53.572;10.170;2022-09-09T03:13:02;13.90;99.90
50606;DHT22;36557;53.572;10.170;2022-09-09T03:15:31;13.90;99.90
50606;DHT22;36557;53.572;10.170;2022-09-09T03:17:58;13.90;99.90
50606;DHT22;36557;53.572;10.170;2022-09-09T03:20:28;13.90;99.90
50606;DHT22;36557;53.572;10.170;2022-09-09T03:22:55;13.90;99.90
50606;DHT22;36557;53.572;10.170;2022-09-09T03:25:22;13.90;99.90
50606;DHT22;36557;53.572;10.170;2022-09-09T03:27:52;13.90;99.90
50606;DHT22;36557;53.572;10.170;2022-09-09T03:30:20;13.90;99.90
50606;DHT22;36557;53.572;10.170;2022-09-09T03:32:46;13.80;99.90
50606;DHT22;36557;53.572;10.170;2022-09-09T03:35:12;13.90;99.90
50606;DHT22;36557;53.572;10.170;2022-09-09T03:37:38;13.80;99.90
50606;DHT22;36557;53.572;10.170;2022-09-09T03:40:04;13.70;99.90
50606;DHT22;36557;53.572;10.170;2022-09-09T03:42:30;13.70;99.90
50606;DHT22;36557;53.572;10.170;2022-09-09T03:44:56;13.70;99.90
50606;DHT22;36557;53.572;10.170;2022-09-09T03:47:23;13.70;99.90
50606;DHT22;36557;53.572;10.170;2022-09-09T03:49:49;13.70;99.90
50606;DHT22;36557;53.572;10.170;2022-09-09T03:52:15;13.60;99.90
50606;DHT22;36557;53.572;10.170;2022-09-09T03:54:41;13.60;99.90
50606;DHT22;36557;53.572;10.170;2022-09-09T03:57:11;13.60;99.90
50606;DHT22;36557;53.572;10.170;2022-09-09T03:59:37;13.70;99.90
50606;DHT22;36557;53.572;10.170;2022-09-09T04:02:03;13.60;99.90
50606;DHT22;36557;53.572;10.170;2022-09-09T04:04:29;13.60;99.90
50606;DHT22;36557;53.572;10.170;2022-09-09T04:06:55;13.50;99.90
50606;DHT22;36557;53.572;10.170;2022-09-09T04:09:21;13.60;99.90
50606;DHT22;36557;53.572;10.170;2022-09-09T04:11:47;13.50;99.90
50606;DHT22;36557;53.572;10.170;2022-09-09T04:14:12;13.60;99.90
50606;DHT22;36557;53.572;10.170;2022-09-09T04:16:38;13.50;99.90
50606;DHT22;36557;53.572;10.170;2022-09-09T04:19:05;13.60;99.90
50606;DHT22;36557;53.572;10.170;2022-09-09T04:21:32;13.50;99.90
50606;DHT22;36557;53.572;10.170;2022-09-09T04:23:58;13.50;99.90
50606;DHT22;36557;53.572;10.170;2022-09-09T04:26:24;13.50;99.90
50606;DHT22;36557;53.572;10.170;2022-09-09T04:28:50;13.50;99.90
50606;DHT22;36557;53.572;10.170;2022-09-09T04:31:18;13.50;99.90
50606;DHT22;36557;53.572;10.170;2022-09-09T04:33:45;13.40;99.90
50606;DHT22;36557;53.572;10.170;2022-09-09T04:36:12;13.50;99.90
50606;DHT22;36557;53.572;10.170;2022-09-09T04:38:38;13.50;99.90
50606;DHT22;36557;53.572;10.170;2022-09-09T04:41:04;13.50;99.90
50606;DHT22;36557;53.572;10.170;2022-09-09T04:43:30;13.40;99.90
50606;DHT22;36557;53.572;10.170;2022-09-09T04:45:56;13.50;99.90
50606;DHT22;36557;53.572;10.170;2022-09-09T04:48:22;13.50;99.90
50606;DHT22;36557;53.572;10.170;2022-09-09T04:51:03;13.50;99.90
50606;DHT22;36557;53.572;10.170;2022-09-09T04:53:30;13.50;99.90
50606;DHT22;36557;53.572;10.170;2022-09-09T04:56:11;13.60;99.90
50606;DHT22;36557;53.572;10.170;2022-09-09T04:58:37;13.50;99.90
50606;DHT22;36557;53.572;10.170;2022-09-09T05:01:09;13.60;99.90
50606;DHT22;36557;53.572;10.170;2022-09-09T05:03:35;13.60;99.90
50606;DHT22;36557;53.572;10.170;2022-09-09T05:06:09;13.60;99.90
50606;DHT22;36557;53.572;10.170;2022-09-09T05:08:37;13.60;99.90
50606;DHT22;36557;53.572;10.170;2022-09-09T05:11:04;13.60;99.90
50606;DHT22;36557;53.572;10.170;2022-09-09T05:13:29;13.60;99.90
50606;DHT22;36557;53.572;10.170;2022-09-09T05:15:57;13.50;99.90
50606;DHT22;36557;53.572;10.170;2022-09-09T05:18:23;13.50;99.90
50606;DHT22;36557;53.572;10.170;2022-09-09T05:20:49;13.50;99.90
50606;DHT22;36557;53.572;10.170;2022-09-09T05:23:16;13.50;99.90
50606;DHT22;36557;53.572;10.170;2022-09-09T05:25:42;13.40;99.90
50606;DHT22;36557;53.572;10.170;2022-09-09T05:28:09;13.40;99.90
50606;DHT22;36557;53.572;10.170;2022-09-09T05:30:35;13.40;99.90
50606;DHT22;36557;53.572;10.170;2022-09-09T05:33:00;13.50;99.90
50606;DHT22;36557;53.572;10.170;2022-09-09T05:35:27;13.40;99.90
50606;DHT22;36557;53.572;10.170;2022-09-09T05:37:52;13.50;99.90
50606;DHT22;36557;53.572;10.170;2022-09-09T05:40:18;13.40;99.90
50606;DHT22;36557;53.572;10.170;2022-09-09T05:42:44;13.60;99.90
50606;DHT22;36557;53.572;10.170;2022-09-09T05:45:09;13.60;99.90
50606;DHT22;36557;53.572;10.170;2022-09-09T05:47:36;13.60;99.90
50606;DHT22;36557;53.572;10.170;2022-09-09T05:50:03;13.80;99.90
50606;DHT22;36557;53.572;10.170;2022-09-09T05:52:29;13.80;99.90
50606;DHT22;36557;53.572;10.170;2022-09-09T05:54:55;13.90;99.90
50606;DHT22;36557;53.572;10.170;2022-09-09T05:57:22;14.00;99.90
50606;DHT22;36557;53.572;10.170;2022-09-09T05:59:48;13.90;99.90
50606;DHT22;36557;53.572;10.170;2022-09-09T06:02:15;14.00;99.90
50606;DHT22;36557;53.572;10.170;2022-09-09T06:04:40;14.00;99.90
50606;DHT22;36557;53.572;10.170;2022-09-09T06:07:07;14.00;99.90
50606;DHT22;36557;53.572;10.170;2022-09-09T06:09:32;14.10;99.90
50606;DHT22;36557;53.572;10.170;2022-09-09T06:11:58;14.20;99.90
50606;DHT22;36557;53.572;10.170;2022-09-09T06:14:24;14.20;99.90
50606;DHT22;36557;53.572;10.170;2022-09-09T06:16:51;14.10;99.90
50606;DHT22;36557;53.572;10.170;2022-09-09T06:19:16;14.20;99.90
50606;DHT22;36557;53.572;10.170;2022-09-09T06:21:42;14.20;99.90
50606;DHT22;36557;53.572;10.170;2022-09-09T06:24:10;14.40;99.90
50606;DHT22;36557;53.572;10.170;2022-09-09T06:26:38;14.50;99.90
50606;DHT22;36557;53.572;10.170;2022-09-09T06:29:07;14.70;99.90
50606;DHT22;36557;53.572;10.170;2022-09-09T06:31:34;14.90;99.90
50606;DHT22;36557;53.572;10.170;2022-09-09T06:34:04;15.00;99.90
50606;DHT22;36557;53.572;10.170;2022-09-09T06:36:36;14.90;99.90
50606;DHT22;36557;53.572;10.170;2022-09-09T06:39:03;14.90;99.90
50606;DHT22;36557;53.572;10.170;2022-09-09T06:41:31;15.10;99.90
50606;DHT22;36557;53.572;10.170;2022-09-09T06:43:57;15.10;99.90
50606;DHT22;36557;53.572;10.170;2022-09-09T06:46:25;15.20;99.90
50606;DHT22;36557;53.572;10.170;2022-09-09T06:48:55;15.20;99.90
50606;DHT22;36557;53.572;10.170;2022-09-09T06:51:26;15.30;99.90
50606;DHT22;36557;53.572;10.170;2022-09-09T06:53:54;15.50;99.90
50606;DHT22;36557;53.572;10.170;2022-09-09T06:56:30;15.70;99.90
50606;DHT22;36557;53.572;10.170;2022-09-09T06:58:59;15.70;99.90
50606;DHT22;36557;53.572;10.170;2022-09-09T07:01:28;16.10;99.90
50606;DHT22;36557;53.572;10.170;2022-09-09T07:03:56;16.40;99.90
50606;DHT22;36557;53.572;10.170;2022-09-09T07:06:35;16.70;99.90
50606;DHT22;36557;53.572;10.170;2022-09-09T07:09:07;16.80;99.90
50606;DHT22;36557;53.572;10.170;2022-09-09T07:11:42;17.00;99.90
50606;DHT22;36557;53.572;10.170;2022-09-09T07:14:08;16.80;99.90
50606;DHT22;36557;53.572;10.170;2022-09-09T07:16:34;16.60;99.90
50606;DHT22;36557;53.572;10.170;2022-09-09T07:19:03;16.50;99.90
50606;DHT22;36557;53.572;10.170;2022-09-09T07:21:30;16.40;99.90
50606;DHT22;36557;53.572;10.170;2022-09-09T07:23:56;16.20;99.90
50606;DHT22;36557;53.572;10.170;2022-09-09T07:26:24;16.30;99.90
50606;DHT22;36557;53.572;10.170;2022-09-09T07:28:50;16.30;99.90
50606;DHT22;36557;53.572;10.170;2022-09-09T07:31:22;16.40;99.90
50606;DHT22;36557;53.572;10.170;2022-09-09T07:33:48;16.40;99.90
50606;DHT22;36557;53.572;10.170;2022-09-09T07:36:25;16.30;99.90
50606;DHT22;36557;53.572;10.170;2022-09-09T07:38:56;16.10;99.90
50606;DHT22;36557;53.572;10.170;2022-09-09T07:41:28;16.30;99.90
50606;DHT22;36557;53.572;10.170;2022-09-09T07:43:56;16.30;99.90
50606;DHT22;36557;53.572;10.170;2022-09-09T07:46:23;16.60;99.90
50606;DHT22;36557;53.572;10.170;2022-09-09T07:48:55;17.00;99.90
50606;DHT22;36557;53.572;10.170;2022-09-09T07:51:30;17.00;99.90
50606;DHT22;36557;53.572;10.170;2022-09-09T07:53:59;16.90;99.90
50606;DHT22;36557;53.572;10.170;2022-09-09T07:56:26;16.90;99.90
50606;DHT22;36557;53.572;10.170;2022-09-09T07:58:54;17.10;99.90
50606;DHT22;36557;53.572;10.170;2022-09-09T08:04:04;17.70;99.90
50606;DHT22;36557;53.572;10.170;2022-09-09T08:06:32;18.20;99.90
50606;DHT22;36557;53.572;10.170;2022-09-09T08:08:59;18.40;99.90
50606;DHT22;36557;53.572;10.170;2022-09-09T08:11:27;18.20;99.90
50606;DHT22;36557;53.572;10.170;2022-09-09T08:13:53;18.50;99.90
50606;DHT22;36557;53.572;10.170;2022-09-09T08:16:24;18.40;99.90
50606;DHT22;36557;53.572;10.170;2022-09-09T08:18:52;18.00;99.90
50606;DHT22;36557;53.572;10.170;2022-09-09T08:21:23;18.00;99.90
50606;DHT22;36557;53.572;10.170;2022-09-09T08:23:51;17.90;99.90
50606;DHT22;36557;53.572;10.170;2022-09-09T08:26:32;17.80;99.90
50606;DHT22;36557;53.572;10.170;2022-09-09T08:29:01;17.80;99.90
50606;DHT22;36557;53.572;10.170;2022-09-09T08:31:31;17.70;99.90
50606;DHT22;36557;53.572;10.170;2022-09-09T08:33:57;17.70;99.90
50606;DHT22;36557;53.572;10.170;2022-09-09T08:36:26;18.20;99.90
50606;DHT22;36557;53.572;10.170;2022-09-09T08:38:54;18.20;99.90
50606;DHT22;36557;53.572;10.170;2022-09-09T08:55:47;18.10;99.90
50606;DHT22;36557;53.572;10.170;2022-09-09T09:07:08;18.20;99.90
50606;DHT22;36557;53.572;10.170;2022-09-09T09:12:23;18.60;99.90
50606;DHT22;36557;53.572;10.170;2022-09-09T09:14:49;18.80;99.90
50606;DHT22;36557;53.572;10.170;2022-09-09T09:17:24;19.00;99.90
50606;DHT22;36557;53.572;10.170;2022-09-09T09:19:50;19.00;99.90
50606;DHT22;36557;53.572;10.170;2022-09-09T09:22:30;19.30;99.90
50606;DHT22;36557;53.572;10.170;2022-09-09T09:30:21;19.80;99.90
50606;DHT22;36557;53.572;10.170;2022-09-09T09:32:57;19.50;99.90
50606;DHT22;36557;53.572;10.170;2022-09-09T09:35:24;19.30;99.90
50606;DHT22;36557;53.572;10.170;2022-09-09T09:37:49;19.10;99.90
50606;DHT22;36557;53.572;10.170;2022-09-09T09:40:21;19.40;99.90
50606;DHT22;36557;53.572;10.170;2022-09-09T09:42:55;19.20;99.90
50606;DHT22;36557;53.572;10.170;2022-09-09T09:45:41;19.30;99.90
50606;DHT22;36557;53.572;10.170;2022-09-09T09:48:11;19.70;99.90
50606;DHT22;36557;53.572;10.170;2022-09-09T09:53:25;20.10;99.90
50606;DHT22;36557;53.572;10.170;2022-09-09T09:55:58;20.70;99.90
50606;DHT22;36557;53.572;10.170;2022-09-09T09:58:59;20.80;99.90
50606;DHT22;36557;53.572;10.170;2022-09-09T10:01:30;20.70;99.90
50606;DHT22;36557;53.572;10.170;2022-09-09T10:04:01;20.60;99.90
50606;DHT22;36557;53.572;10.170;2022-09-09T10:06:35;21.20;99.90
50606;DHT22;36557;53.572;10.170;2022-09-09T10:09:17;20.80;99.90
50606;DHT22;36557;53.572;10.170;2022-09-09T10:12:01;20.70;99.90
50606;DHT22;36557;53.572;10.170;2022-09-09T10:14:41;20.70;99.90
50606;DHT22;36557;53.572;10.170;2022-09-09T10:22:32;20.70;99.90
50606;DHT22;36557;53.572;10.170;2022-09-09T10:28:33;21.60;99.90
50606;DHT22;36557;53.572;10.170;2022-09-09T10:34:02;22.00;99.90
50606;DHT22;36557;53.572;10.170;2022-09-09T10:36:29;22.40;99.90
50606;DHT22;36557;53.572;10.170;2022-09-09T10:39:02;22.60;99.90
50606;DHT22;36557;53.572;10.170;2022-09-09T10:44:27;22.20;99.90
50606;DHT22;36557;53.572;10.170;2022-09-09T10:48:26;22.40;99.90
50606;DHT22;36557;53.572;10.170;2022-09-09T10:50:52;22.90;99.90
50606;DHT22;36557;53.572;10.170;2022-09-09T10:56:04;22.20;99.90
50606;DHT22;36557;53.572;10.170;2022-09-09T10:58:54;22.20;99.90
50606;DHT22;36557;53.572;10.170;2022-09-09T11:04:00;21.20;99.90
50606;DHT22;36557;53.572;10.170;2022-09-09T11:06:32;21.40;99.90
50606;DHT22;36557;53.572;10.170;2022-09-09T11:09:02;21.30;99.90
50606;DHT22;36557;53.572;10.170;2022-09-09T11:11:53;21.40;99.90
50606;DHT22;36557;53.572;10.170;2022-09-09T11:14:42;21.60;99.90
50606;DHT22;36557;53.572;10.170;2022-09-09T11:17:21;21.90;99.90
50606;DHT22;36557;53.572;10.170;2022-09-09T11:19:48;22.20;99.90
50606;DHT22;36557;53.572;10.170;2022-09-09T11:22:37;22.40;99.90
50606;DHT22;36557;53.572;10.170;2022-09-09T11:27:39;21.60;99.90
50606;DHT22;36557;53.572;10.170;2022-09-09T11:33:48;21.60;99.90
50606;DHT22;36557;53.572;10.170;2022-09-09T11:36:41;22.00;99.90
50606;DHT22;36557;53.572;10.170;2022-09-09T11:41:45;22.60;99.90
50606;DHT22;36557;53.572;10.170;2022-09-09T11:44:13;23.10;99.90
50606;DHT22;36557;53.572;10.170;2022-09-09T11:46:42;23.30;99.90
50606;DHT22;36557;53.572;10.170;2022-09-09T11:49:42;23.60;99.90
50606;DHT22;36557;53.572;10.170;2022-09-09T11:52:34;23.20;99.90
50606;DHT22;36557;53.572;10.170;2022-09-09T11:55:24;23.10;99.90
50606;DHT22;36557;53.572;10.170;2022-09-09T12:00:39;22.40;99.90
50606;DHT22;36557;53.572;10.170;2022-09-09T12:03:46;22.20;99.90
50606;DHT22;36557;53.572;10.170;2022-09-09T12:06:17;21.80;99.90
50606;DHT22;36557;53.572;10.170;2022-09-09T12:08:49;22.20;99.90
50606;DHT22;36557;53.572;10.170;2022-09-09T12:11:29;22.60;99.90
50606;DHT22;36557;53.572;10.170;2022-09-09T12:13:57;22.30;99.90
50606;DHT22;36557;53.572;10.170;2022-09-09T12:16:36;22.50;99.90
50606;DHT22;36557;53.572;10.170;2022-09-09T12:19:14;23.00;99.90
50606;DHT22;36557;53.572;10.170;2022-09-09T12:33:17;21.90;99.90
50606;DHT22;36557;53.572;10.170;2022-09-09T12:35:48;21.30;99.90
50606;DHT22;36557;53.572;10.170;2022-09-09T12:38:26;21.40;99.90
50606;DHT22;36557;53.572;10.170;2022-09-09T12:40:57;21.60;99.90
50606;DHT22;36557;53.572;10.170;2022-09-09T12:43:25;21.50;99.90
50606;DHT22;36557;53.572;10.170;2022-09-09T12:45:57;21.60;99.90
50606;DHT22;36557;53.572;10.170;2022-09-09T12:48:28;21.70;99.90
50606;DHT22;36557;53.572;10.170;2022-09-09T12:50:56;21.80;99.90
50606;DHT22;36557;53.572;10.170;2022-09-09T12:53:35;21.60;99.90
50606;DHT22;36557;53.572;10.170;2022-09-09T12:56:07;21.60;99.90
50606;DHT22;36557;53.572;10.170;2022-09-09T12:58:35;21.70;99.90
50606;DHT22;36557;53.572;10.170;2022-09-09T13:01:02;21.80;99.90
50606;DHT22;36557;53.572;10.170;2022-09-09T13:03:33;21.70;99.90
50606;DHT22;36557;53.572;10.170;2022-09-09T13:06:11;21.40;99.90
50606;DHT22;36557;53.572;10.170;2022-09-09T13:08:37;21.40;99.90
50606;DHT22;36557;53.572;10.170;2022-09-09T13:11:07;21.10;99.90
50606;DHT22;36557;53.572;10.170;2022-09-09T13:13:37;21.00;99.90
50606;DHT22;36557;53.572;10.170;2022-09-09T13:16:05;21.00;99.90
50606;DHT22;36557;53.572;10.170;2022-09-09T13:18:36;21.00;99.90
50606;DHT22;36557;53.572;10.170;2022-09-09T13:21:03;20.80;99.90
50606;DHT22;36557;53.572;10.170;2022-09-09T13:23:31;20.70;99.90
50606;DHT22;36557;53.572;10.170;2022-09-09T13:26:22;20.50;99.90
50606;DHT22;36557;53.572;10.170;2022-09-09T13:28:48;20.40;99.90
50606;DHT22;36557;53.572;10.170;2022-09-09T13:31:23;20.30;99.90
50606;DHT22;36557;53.572;10.170;2022-09-09T13:33:50;20.30;99.90
50606;DHT22;36557;53.572;10.170;2022-09-09T13:36:15;20.20;99.90
50606;DHT22;36557;53.572;10.170;2022-09-09T13:41:20;20.10;99.90
50606;DHT22;36557;53.572;10.170;2022-09-09T13:43:47;20.10;99.90
50606;DHT22;36557;53.572;10.170;2022-09-09T13:49:01;19.90;99.90
50606;DHT22;36557;53.572;10.170;2022-09-09T13:51:36;19.80;99.90
50606;DHT22;36557;53.572;10.170;2022-09-09T13:54:05;19.60;99.90
50606;DHT22;36557;53.572;10.170;2022-09-09T13:56:33;19.30;99.90
50606;DHT22;36557;53.572;10.170;2022-09-09T13:58:59;19.00;99.90
50606;DHT22;36557;53.572;10.170;2022-09-09T14:01:24;18.90;99.90
50606;DHT22;36557;53.572;10.170;2022-09-09T14:03:50;18.70;99.90
50606;DHT22;36557;53.572;10.170;2022-09-09T14:06:16;18.60;99.90
50606;DHT22;36557;53.572;10.170;2022-09-09T14:08:44;18.50;99.90
50606;DHT22;36557;53.572;10.170;2022-09-09T14:11:12;18.50;99.90
50606;DHT22;36557;53.572;10.170;2022-09-09T14:13:38;18.40;99.90
50606;DHT22;36557;53.572;10.170;2022-09-09T14:16:04;18.40;99.90
50606;DHT22;36557;53.572;10.170;2022-09-09T14:18:30;18.30;99.90
50606;DHT22;36557;53.572;10.170;2022-09-09T14:20:56;18.30;99.90
50606;DHT22;36557;53.572;10.170;2022-09-09T14:23:22;18.20;99.90
50606;DHT22;36557;53.572;10.170;2022-09-09T14:25:50;18.20;99.90
50606;DHT22;36557;53.572;10.170;2022-09-09T14:28:15;18.10;99.90
50606;DHT22;36557;53.572;10.170;2022-09-09T14:30:42;18.10;99.90
50606;DHT22;36557;53.572;10.170;2022-09-09T14:33:11;18.10;99.90
50606;DHT22;36557;53.572;10.170;2022-09-09T14:35:37;18.10;99.90
50606;DHT22;36557;53.572;10.170;2022-09-09T14:38:04;18.00;99.90
50606;DHT22;36557;53.572;10.170;2022-09-09T14:40:30;18.10;99.90
50606;DHT22;36557;53.572;10.170;2022-09-09T14:42:57;18.00;99.90
50606;DHT22;36557;53.572;10.170;2022-09-09T14:45:23;18.10;99.90
50606;DHT22;36557;53.572;10.170;2022-09-09T14:47:51;18.10;99.90
50606;DHT22;36557;53.572;10.170;2022-09-09T14:50:18;18.20;99.90
50606;DHT22;36557;53.572;10.170;2022-09-09T14:52:43;18.00;99.90
50606;DHT22;36557;53.572;10.170;2022-09-09T14:55:09;18.00;99.90
50606;DHT22;36557;53.572;10.170;2022-09-09T14:57:35;17.90;99.90
50606;DHT22;36557;53.572;10.170;2022-09-09T15:00:04;17.90;99.90
50606;DHT22;36557;53.572;10.170;2022-09-09T15:02:30;18.00;99.90
50606;DHT22;36557;53.572;10.170;2022-09-09T15:04:56;17.90;99.90
50606;DHT22;36557;53.572;10.170;2022-09-09T15:07:24;17.80;99.90
50606;DHT22;36557;53.572;10.170;2022-09-09T15:09:50;17.60;99.90
50606;DHT22;36557;53.572;10.170;2022-09-09T15:12:16;17.60;99.90
50606;DHT22;36557;53.572;10.170;2022-09-09T15:14:44;17.70;99.90
50606;DHT22;36557;53.572;10.170;2022-09-09T15:17:10;17.60;99.90
50606;DHT22;36557;53.572;10.170;2022-09-09T15:19:36;17.50;99.90
50606;DHT22;36557;53.572;10.170;2022-09-09T15:22:06;17.40;99.90
50606;DHT22;36557;53.572;10.170;2022-09-09T15:24:33;17.30;99.90
50606;DHT22;36557;53.572;10.170;2022-09-09T15:27:00;17.20;99.90
50606;DHT22;36557;53.572;10.170;2022-09-09T15:29:26;17.10;99.90
50606;DHT22;36557;53.572;10.170;2022-09-09T15:31:54;17.20;99.90
50606;DHT22;36557;53.572;10.170;2022-09-09T15:34:20;17.50;99.90
50606;DHT22;36557;53.572;10.170;2022-09-09T15:36:46;17.50;99.90
50606;DHT22;36557;53.572;10.170;2022-09-09T15:39:13;17.60;99.90
50606;DHT22;36557;53.572;10.170;2022-09-09T15:41:41;17.60;99.90
50606;DHT22;36557;53.572;10.170;2022-09-09T15:44:09;17.50;99.90
50606;DHT22;36557;53.572;10.170;2022-09-09T15:46:43;17.60;99.90
50606;DHT22;36557;53.572;10.170;2022-09-09T15:49:11;17.80;99.90
50606;DHT22;36557;53.572;10.170;2022-09-09T15:51:42;17.90;99.90
50606;DHT22;36557;53.572;10.170;2022-09-09T15:54:10;18.00;99.90
50606;DHT22;36557;53.572;10.170;2022-09-09T15:56:37;18.20;99.90
50606;DHT22;36557;53.572;10.170;2022-09-09T15:59:03;18.20;99.90
50606;DHT22;36557;53.572;10.170;2022-09-09T16:04:01;18.30;99.90
50606;DHT22;36557;53.572;10.170;2022-09-09T16:06:29;18.30;99.90
50606;DHT22;36557;53.572;10.170;2022-09-09T16:08:56;18.10;99.90
50606;DHT22;36557;53.572;10.170;2022-09-09T16:11:30;18.20;99.90
50606;DHT22;36557;53.572;10.170;2022-09-09T16:13:57;18.20;99.90
50606;DHT22;36557;53.572;10.170;2022-09-09T16:16:25;18.40;99.90
50606;DHT22;36557;53.572;10.170;2022-09-09T16:18:56;18.40;99.90
50606;DHT22;36557;53.572;10.170;2022-09-09T16:21:30;18.50;99.90
50606;DHT22;36557;53.572;10.170;2022-09-09T16:23:59;18.30;99.90
50606;DHT22;36557;53.572;10.170;2022-09-09T16:26:26;18.50;99.90
50606;DHT22;36557;53.572;10.170;2022-09-09T16:28:52;18.30;99.90
50606;DHT22;36557;53.572;10.170;2022-09-09T16:31:22;18.40;99.90
50606;DHT22;36557;53.572;10.170;2022-09-09T16:33:49;18.40;99.90
50606;DHT22;36557;53.572;10.170;2022-09-09T16:36:25;18.50;99.90
50606;DHT22;36557;53.572;10.170;2022-09-09T16:38:56;18.30;99.90
50606;DHT22;36557;53.572;10.170;2022-09-09T16:41:26;18.20;99.90
50606;DHT22;36557;53.572;10.170;2022-09-09T16:43:54;18.20;99.90
50606;DHT22;36557;53.572;10.170;2022-09-09T16:46:21;18.20;99.90
50606;DHT22;36557;53.572;10.170;2022-09-09T16:48:48;18.10;99.90
50606;DHT22;36557;53.572;10.170;2022-09-09T16:51:15;18.10;99.90
50606;DHT22;36557;53.572;10.170;2022-09-09T16:53:42;18.20;99.90
50606;DHT22;36557;53.572;10.170;2022-09-09T16:56:14;18.20;99.90
50606;DHT22;36557;53.572;10.170;2022-09-09T16:58:40;18.00;99.90
50606;DHT22;36557;53.572;10.170;2022-09-09T17:01:08;18.20;99.90
50606;DHT22;36557;53.572;10.170;2022-09-09T17:03:35;18.10;99.90
50606;DHT22;36557;53.572;10.170;2022-09-09T17:06:03;18.20;99.90
50606;DHT22;36557;53.572;10.170;2022-09-09T17:08:33;18.20;99.90
50606;DHT22;36557;53.572;10.170;2022-09-09T17:10:59;18.00;99.90
50606;DHT22;36557;53.572;10.170;2022-09-09T17:13:25;17.90;99.90
50606;DHT22;36557;53.572;10.170;2022-09-09T17:15:51;18.00;99.90
50606;DHT22;36557;53.572;10.170;2022-09-09T17:18:16;17.90;99.90
50606;DHT22;36557;53.572;10.170;2022-09-09T17:20:42;17.80;99.90
50606;DHT22;36557;53.572;10.170;2022-09-09T17:23:10;17.70;99.90
50606;DHT22;36557;53.572;10.170;2022-09-09T17:25:37;17.60;99.90
50606;DHT22;36557;53.572;10.170;2022-09-09T17:28:03;17.40;99.90
50606;DHT22;36557;53.572;10.170;2022-09-09T17:30:33;17.40;99.90
50606;DHT22;36557;53.572;10.170;2022-09-09T17:33:00;17.30;99.90
50606;DHT22;36557;53.572;10.170;2022-09-09T17:35:25;17.10;99.90
50606;DHT22;36557;53.572;10.170;2022-09-09T17:37:53;17.00;99.90